Time;durP1;ratioP1;P1;durP2;ratioP2;P2;SDS_P1;SDS_P2;PMS_P1;PMS_P2;Temp;Humidity;BMP_temperature;BMP_pressure;BME280_temperature;BME280_humidity;BME280_pressure;Samples;Min_cycle;Max_cycle;Signal;HPM_P1;HPM_P2
2024/04/24 00:04:51;;;;;;;23.8;12.1;;;;;;;7.43;80.02;97896.666666667;;;;
2024/04/24 00:14:51;;;;;;;21.4;11.5;;;;;;;7.47;79.78;97880;;;;
2024/04/24 00:25:51;;;;;;;21.4;11.5;;;;;;;7.45;79.62;97871.666666667;;;;
2024/04/24 00:35:51;;;;;;;21.4;11.5;;;;;;;7.5;79.73;97860;;;;
2024/04/24 00:45:51;;;;;;;20.2;11.1;;;;;;;7.46;79.75;97840;;;;
2024/04/24 00:55:51;;;;;;;20.2;11.1;;;;;;;7.43;80.27;97835;;;;
2024/04/24 01:06:51;;;;;;;18.7;11.4;;;;;;;7.51;79.59;97821.666666667;;;;
2024/04/24 01:17:51;;;;;;;18.7;11.4;;;;;;;7.54;79.69;97813.333333333;;;;
2024/04/24 01:28:51;;;;;;;18.7;11.4;;;;;;;7.49;80.66;97798.333333333;;;;
2024/04/24 01:39:51;;;;;;;22.8;11.8;;;;;;;7.43;80.42;97783.333333333;;;;
2024/04/24 01:49:51;;;;;;;22.8;11.8;;;;;;;7.23;81.34;97760;;;;
2024/04/24 02:00:51;;;;;;;22.8;11.8;;;;;;;7.16;81.93;97746.666666667;;;;
2024/04/24 02:10:51;;;;;;;14.8;8.7;;;;;;;7.26;81.4;97740;;;;
2024/04/24 02:20:51;;;;;;;14.8;8.7;;;;;;;7.49;80.34;97735;;;;
2024/04/24 02:30:51;;;;;;;14.8;8.7;;;;;;;7.55;79.7;97721.666666667;;;;
2024/04/24 02:40:51;;;;;;;14;7.9;;;;;;;7.62;79.59;97718.333333333;;;;
2024/04/24 02:51:51;;;;;;;14;7.9;;;;;;;7.63;79.26;97705;;;;
2024/04/24 03:01:51;;;;;;;14;7.9;;;;;;;7.62;79.46;97690;;;;
2024/04/24 03:11:51;;;;;;;12.5;7.5;;;;;;;7.51;79.94;97686.666666667;;;;
2024/04/24 03:22:51;;;;;;;12.5;7.5;;;;;;;7.35;80.33;97680;;;;
2024/04/24 03:32:51;;;;;;;12.5;7.5;;;;;;;7.36;79.34;97671.666666667;;;;
2024/04/24 03:43:51;;;;;;;15.4;7.9;;;;;;;7.3;79.35;97666.666666667;;;;
2024/04/24 03:53:51;;;;;;;15.4;7.9;;;;;;;7.27;79.81;97660;;;;
2024/04/24 04:03:51;;;;;;;15.4;7.9;;;;;;;7.28;80.27;97648.333333333;;;;
2024/04/24 04:14:51;;;;;;;14.9;8.9;;;;;;;7.18;81.22;97651.666666667;;;;
2024/04/24 04:24:51;;;;;;;14.9;8.9;;;;;;;7.15;81.59;97653.333333333;;;;
2024/04/24 04:35:51;;;;;;;14.9;8.9;;;;;;;7.19;82.53;97641.666666667;;;;
2024/04/24 04:45:51;;;;;;;16.9;8.4;;;;;;;7.02;83.08;97633.333333333;;;;
2024/04/24 04:56:51;;;;;;;16.9;8.4;;;;;;;6.99;83.89;97621.666666667;;;;
2024/04/24 05:06:51;;;;;;;16.8;9.3;;;;;;;7.13;83.07;97618.333333333;;;;
2024/04/24 05:17:51;;;;;;;16.8;9.3;;;;;;;7.18;83.01;97605;;;;
2024/04/24 05:37:51;;;;;;;22.1;9.8;;;;;;;7.32;83.18;97583.333333333;;;;
2024/04/24 05:48:51;;;;;;;22.1;9.8;;;;;;;7.47;83.09;97581.666666667;;;;
2024/04/24 05:58:51;;;;;;;22.1;9.8;;;;;;;7.43;82.88;97578.333333333;;;;
2024/04/24 06:09:51;;;;;;;18.5;9.4;;;;;;;7.53;82.57;97578.333333333;;;;
2024/04/24 06:19:54;;;;;;;18.5;9.4;;;;;;;7.6;82.18;97571.666666667;;;;
2024/04/24 06:29:51;;;;;;;18.5;9.4;;;;;;;7.88;81.72;97580;;;;
2024/04/24 06:39:51;;;;;;;19.2;10;;;;;;;7.78;81.41;97575;;;;
2024/04/24 06:50:51;;;;;;;19.2;10;;;;;;;7.7;82.25;97580;;;;
2024/04/24 07:00:51;;;;;;;19.2;10;;;;;;;7.45;82.92;97563.333333333;;;;
2024/04/24 07:10:51;;;;;;;16.5;9.5;;;;;;;8.05;82.68;97551.666666667;;;;
2024/04/24 07:21:51;;;;;;;16.5;9.5;;;;;;;8.1;82.89;97550;;;;
2024/04/24 07:44:07;;;;;;;20.5;12;;;;;;;8.07;81.96;97546;;;;
2024/04/24 07:54:07;;;;;;;20.5;12;;;;;;;8.18;81.96;97536;;;;
2024/04/24 08:04:07;;;;;;;20.5;12;;;;;;;8.41;77.78;97536;;;;
2024/04/24 08:14:07;;;;;;;23.4;13.4;;;;;;;8.66;78.16;97536;;;;
2024/04/24 08:24:07;;;;;;;23.4;13.4;;;;;;;8.53;77.58;97530;;;;
2024/04/24 08:34:07;;;;;;;23.4;13.4;;;;;;;8.91;77.57;97532;;;;
2024/04/24 08:45:07;;;;;;;26.3;14.8;;;;;;;8.83;77.97;97526;;;;
2024/04/24 08:56:07;;;;;;;26.3;14.8;;;;;;;8.91;76.47;97528;;;;
2024/04/24 09:06:07;;;;;;;26;14.5;;;;;;;9.08;77.11;97520;;;;
2024/04/24 09:17:07;;;;;;;26;14.5;;;;;;;9.44;75.13;97504;;;;
2024/04/24 09:28:07;;;;;;;26;14.5;;;;;;;9.74;73.34;97500;;;;
2024/04/24 09:39:07;;;;;;;24;16;;;;;;;10.07;72.55;97480;;;;
2024/04/24 09:49:07;;;;;;;24;16;;;;;;;10.24;70.88;97476;;;;
2024/04/24 10:00:08;;;;;;;24;16;;;;;;;10.57;71.25;97468;;;;
2024/04/24 10:10:07;;;;;;;23.4;15;;;;;;;11.03;70.77;97462;;;;
2024/04/24 10:21:08;;;;;;;23.4;15;;;;;;;11.16;69.11;97456;;;;
2024/04/24 10:31:07;;;;;;;23.4;15;;;;;;;11.09;69.16;97458;;;;
2024/04/24 10:42:07;;;;;;;24.8;16.8;;;;;;;10.62;70.02;97454;;;;
2024/04/24 10:53:07;;;;;;;24.8;16.8;;;;;;;10.29;71.49;97448;;;;
2024/04/24 11:03:08;;;;;;;24.8;16.8;;;;;;;10.64;71.16;97448;;;;
2024/04/24 11:13:08;;;;;;;19.6;14.1;;;;;;;10.65;70.73;97446;;;;
2024/04/24 11:24:07;;;;;;;19.6;14.1;;;;;;;10.82;70.78;97448;;;;
2024/04/24 11:34:07;;;;;;;19.6;14.1;;;;;;;10.81;70.13;97448;;;;
2024/04/24 11:44:07;;;;;;;22;12.7;;;;;;;11.07;70.03;97441.666666667;;;;
2024/04/24 11:54:08;;;;;;;22;12.7;;;;;;;11.09;69.02;97436.666666667;;;;
2024/04/24 12:05:07;;;;;;;22;12.7;;;;;;;11.12;69.67;97435;;;;
2024/04/24 12:16:07;;;;;;;17.4;11;;;;;;;11.17;68.85;97428.333333333;;;;
2024/04/24 12:26:07;;;;;;;17.4;11;;;;;;;10.99;69.53;97430;;;;
2024/04/24 12:37:07;;;;;;;14.5;9.2;;;;;;;10.69;70.82;97423.333333333;;;;
2024/04/24 12:47:09;;;;;;;14.5;9.2;;;;;;;10.63;71.33;97413.333333333;;;;
2024/04/24 12:57:07;;;;;;;14.5;9.2;;;;;;;10.8;72.1;97416.666666667;;;;
2024/04/24 13:08:08;;;;;;;16.9;10.8;;;;;;;10.82;72.74;97408.333333333;;;;
2024/04/24 13:18:07;;;;;;;16.9;10.8;;;;;;;10.9;74.47;97406.666666667;;;;
2024/04/24 13:28:08;;;;;;;16.9;10.8;;;;;;;10.81;75.01;97401.666666667;;;;
2024/04/24 13:39:08;;;;;;;19.5;14.2;;;;;;;10.88;75.12;97401.666666667;;;;
2024/04/24 13:49:07;;;;;;;19.5;14.2;;;;;;;10.92;74.73;97400;;;;
2024/04/24 13:59:10;;;;;;;19.5;14.2;;;;;;;10.92;75.14;97400;;;;
2024/04/24 14:09:08;;;;;;;22.2;15.8;;;;;;;10.81;75.59;97400;;;;
2024/04/24 14:20:07;;;;;;;22.2;15.8;;;;;;;10.43;75.93;97400;;;;
2024/04/24 14:31:07;;;;;;;22.2;15.8;;;;;;;10.36;75.97;97398.333333333;;;;
2024/04/24 14:41:12;;;;;;;22.9;15.1;;;;;;;10.37;74.42;97391.666666667;;;;
2024/04/24 14:51:08;;;;;;;22.9;15.1;;;;;;;10.21;73.52;97390;;;;
2024/04/24 15:01:08;;;;;;;22.9;15.1;;;;;;;10.14;74.17;97386.666666667;;;;
2024/04/24 15:12:08;;;;;;;24.8;15.2;;;;;;;10.05;73.32;97378.333333333;;;;
2024/04/24 15:22:08;;;;;;;24.8;15.2;;;;;;;9.87;73.74;97376.666666667;;;;
2024/04/24 15:33:08;;;;;;;24.8;15.2;;;;;;;9.63;74.85;97375;;;;
2024/04/24 15:43:08;;;;;;;22.6;15.6;;;;;;;9.51;76.27;97381.666666667;;;;
2024/04/24 15:54:07;;;;;;;22.6;15.6;;;;;;;9.45;78.14;97390;;;;
2024/04/24 16:04:08;;;;;;;22.6;15.6;;;;;;;9.18;80.53;97393.333333333;;;;
2024/04/24 16:15:08;;;;;;;22;13.5;;;;;;;8.95;81.57;97390;;;;
2024/04/24 16:25:08;;;;;;;22;13.5;;;;;;;8.7;82.91;97395;;;;
2024/04/24 16:35:08;;;;;;;27.5;16.4;;;;;;;8.52;83.99;97400;;;;
2024/04/24 16:46:07;;;;;;;27.5;16.4;;;;;;;8.44;83.42;97403.333333333;;;;
2024/04/24 16:56:08;;;;;;;27.5;16.4;;;;;;;8.17;84.6;97416.666666667;;;;
2024/04/24 17:06:08;;;;;;;29.4;19.3;;;;;;;8.13;84.55;97425;;;;
2024/04/24 17:17:08;;;;;;;29.4;19.3;;;;;;;7.57;86.18;97435;;;;
2024/04/24 17:27:08;;;;;;;29.4;19.3;;;;;;;7.67;86.11;97440;;;;
2024/04/24 17:37:08;;;;;;;33.3;18.2;;;;;;;7.53;86.52;97450;;;;
2024/04/24 17:48:08;;;;;;;33.3;18.2;;;;;;;7.34;87;97455;;;;
2024/04/24 17:59:08;;;;;;;33.3;18.2;;;;;;;7.39;87.24;97465;;;;
2024/04/24 18:10:08;;;;;;;36.7;20.1;;;;;;;7.04;87.75;97480;;;;
2024/04/24 18:20:08;;;;;;;36.7;20.1;;;;;;;6.92;88.55;97490;;;;
2024/04/24 18:31:08;;;;;;;36.7;20.1;;;;;;;6.75;88.66;97503.333333333;;;;
2024/04/24 18:41:11;;;;;;;35.2;20.2;;;;;;;6.6;88.44;97513.333333333;;;;
2024/04/24 18:52:08;;;;;;;35.2;20.2;;;;;;;6.37;88.78;97531.666666667;;;;
2024/04/24 19:02:08;;;;;;;35.2;20.2;;;;;;;6.13;89.02;97541.666666667;;;;
2024/04/24 19:13:11;;;;;;;29.2;16.3;;;;;;;5.94;89.64;97548.333333333;;;;
2024/04/24 19:23:08;;;;;;;29.2;16.3;;;;;;;5.91;89.69;97550;;;;
2024/04/24 19:34:08;;;;;;;29.2;16.3;;;;;;;5.93;89.46;97551.666666667;;;;
2024/04/24 19:45:08;;;;;;;27.3;15.3;;;;;;;5.91;89.47;97561.666666667;;;;
2024/04/24 19:55:08;;;;;;;27.3;15.3;;;;;;;5.67;90.04;97565;;;;
2024/04/24 20:05:08;;;;;;;26.6;15;;;;;;;5.84;89.62;97570;;;;
2024/04/24 20:16:08;;;;;;;26.6;15;;;;;;;5.63;89.49;97575;;;;
2024/04/24 20:26:08;;;;;;;26.6;15;;;;;;;5.61;89.31;97578.333333333;;;;
2024/04/24 20:37:08;;;;;;;24.5;14.1;;;;;;;5.61;89.11;97583.333333333;;;;
2024/04/24 20:47:08;;;;;;;24.5;14.1;;;;;;;5.51;89.31;97585;;;;
2024/04/24 20:58:08;;;;;;;24.5;14.1;;;;;;;5.55;89.48;97581.666666667;;;;
2024/04/24 21:08:08;;;;;;;23.4;12.8;;;;;;;5.72;89.12;97586.666666667;;;;
2024/04/24 21:19:08;;;;;;;23.4;12.8;;;;;;;5.71;88.59;97586.666666667;;;;
2024/04/24 21:29:08;;;;;;;23.4;12.8;;;;;;;5.71;88.51;97590;;;;
2024/04/24 21:39:10;;;;;;;22.3;13.3;;;;;;;5.75;88.31;97583.333333333;;;;
2024/04/24 21:50:08;;;;;;;22.3;13.3;;;;;;;5.86;88.35;97583.333333333;;;;
2024/04/24 22:00:08;;;;;;;22.3;13.3;;;;;;;5.88;88.21;97586.666666667;;;;
2024/04/24 22:11:08;;;;;;;22.9;13.7;;;;;;;5.68;88.86;97586.666666667;;;;
2024/04/24 22:22:08;;;;;;;22.9;13.7;;;;;;;5.6;89.14;97586.666666667;;;;
2024/04/24 22:32:08;;;;;;;22.9;13.7;;;;;;;5.43;89.08;97590;;;;
2024/04/24 22:42:08;;;;;;;30.1;16;;;;;;;5.38;88.75;97595;;;;
2024/04/24 22:53:12;;;;;;;30.1;16;;;;;;;5.25;89.15;97600;;;;
2024/04/24 23:04:09;;;;;;;30.1;16;;;;;;;5.23;88.4;97601.666666667;;;;
2024/04/24 23:15:08;;;;;;;24.9;14.8;;;;;;;5.17;88.27;97601.666666667;;;;
2024/04/24 23:26:08;;;;;;;24.9;14.8;;;;;;;5.1;88.59;97596.666666667;;;;
2024/04/24 23:36:08;;;;;;;22;13.7;;;;;;;5.27;88.47;97596.666666667;;;;
2024/04/24 23:47:08;;;;;;;22;13.7;;;;;;;5.32;88.28;97600;;;;
2024/04/24 23:58:08;;;;;;;22;13.7;;;;;;;5.2;88.25;97600;;;;
